Time;durP1;ratioP1;P1;durP2;ratioP2;P2;SDS_P1;SDS_P2;PMS_P1;PMS_P2;Temp;Humidity;BMP_temperature;BMP_pressure;BME280_temperature;BME280_humidity;BME280_pressure;Samples;Min_cycle;Max_cycle;Signal;HPM_P1;HPM_P2
2022/08/23 00:01:54;;;;;;;4.55;3.78;;;17.10;99.90;;;;;;5071116;28;20048;-61
2022/08/23 00:04:26;;;;;;;3.97;2.92;;;17.10;99.90;;;;;;5084194;28;20127;-60
2022/08/23 00:06:53;;;;;;;6.47;3.58;;;17.00;99.90;;;;;;5091635;28;20492;-60
2022/08/23 00:09:22;;;;;;;6.03;3.00;;;17.00;99.90;;;;;;5089684;28;20044;-60
2022/08/23 00:12:13;;;;;;;4.40;2.55;;;17.00;99.90;;;;;;5071303;28;20128;-59
2022/08/23 00:14:43;;;;;;;2.63;2.33;;;16.90;99.90;;;;;;5076766;28;20104;-57
2022/08/23 00:17:10;;;;;;;6.82;3.25;;;16.90;99.90;;;;;;5091195;28;20140;-55
2022/08/23 00:19:38;;;;;;;2.47;1.98;;;16.80;99.90;;;;;;5090197;28;20494;-55
2022/08/23 00:22:05;;;;;;;6.32;2.97;;;16.80;99.90;;;;;;5090815;28;20573;-56
2022/08/23 00:24:32;;;;;;;6.22;4.25;;;16.70;99.90;;;;;;5091045;28;20405;-56
2022/08/23 00:27:08;;;;;;;7.68;4.93;;;16.80;99.90;;;;;;5091543;28;20044;-56
2022/08/23 00:29:46;;;;;;;10.05;5.43;;;16.70;99.90;;;;;;5089163;28;20138;-56
2022/08/23 00:32:15;;;;;;;3.80;3.35;;;16.70;99.90;;;;;;5090881;28;20051;-56
2022/08/23 00:34:40;;;;;;;5.28;4.45;;;16.60;99.90;;;;;;5074274;28;20463;-57
2022/08/23 00:37:08;;;;;;;8.32;5.05;;;16.50;99.90;;;;;;5090726;28;20816;-55
2022/08/23 00:39:34;;;;;;;8.02;4.70;;;16.60;99.90;;;;;;5091064;28;20363;-55
2022/08/23 00:47:38;;;;;;;7.80;4.32;;;16.60;99.90;;;;;;5081139;28;20499;-55
2022/08/23 00:47:39;;;;;;;5.15;3.65;;;16.50;99.90;;;;;;5070310;28;20113;-55
2022/08/23 00:50:24;;;;;;;5.95;3.63;;;16.50;99.90;;;;;;5069878;28;20114;-55
2022/08/23 00:52:59;;;;;;;3.63;3.33;;;16.50;99.90;;;;;;5070223;28;20105;-55
2022/08/23 00:55:27;;;;;;;6.97;3.47;;;16.40;99.90;;;;;;5069454;28;20040;-55
2022/08/23 00:57:53;;;;;;;4.10;3.13;;;16.40;99.90;;;;;;5070762;28;20119;-55
2022/08/23 01:00:19;;;;;;;3.97;3.42;;;16.40;99.90;;;;;;5070021;28;20105;-55
2022/08/23 01:02:47;;;;;;;3.28;2.75;;;16.30;99.90;;;;;;5078072;28;20516;-55
2022/08/23 01:05:13;;;;;;;3.75;3.13;;;16.30;99.90;;;;;;5090000;28;20048;-57
2022/08/23 01:07:53;;;;;;;3.35;2.97;;;16.30;99.90;;;;;;5090600;28;20054;-55
2022/08/23 01:10:41;;;;;;;3.78;3.15;;;16.20;99.90;;;;;;5082124;28;20071;-58
2022/08/23 01:13:31;;;;;;;2.70;2.40;;;16.20;99.90;;;;;;5069390;28;20071;-57
2022/08/23 01:16:12;;;;;;;5.10;3.25;;;16.10;99.90;;;;;;5075401;28;20134;-58
2022/08/23 01:18:39;;;;;;;5.45;3.38;;;16.10;99.90;;;;;;5087527;28;20051;-57
2022/08/23 01:21:12;;;;;;;4.03;3.40;;;16.00;99.90;;;;;;5086746;28;20055;-55
2022/08/23 01:23:44;;;;;;;4.40;3.30;;;16.00;99.90;;;;;;5088721;28;20141;-54
2022/08/23 01:26:13;;;;;;;3.47;2.83;;;16.00;99.90;;;;;;5090043;28;20564;-55
2022/08/23 01:28:39;;;;;;;5.00;3.42;;;15.90;99.90;;;;;;5090020;28;20036;-56
2022/08/23 01:31:06;;;;;;;4.88;3.67;;;16.00;99.90;;;;;;5089635;28;20058;-55
2022/08/23 01:33:33;;;;;;;3.53;3.13;;;15.90;99.90;;;;;;5089966;28;20106;-55
2022/08/23 01:35:59;;;;;;;8.93;4.10;;;16.00;99.90;;;;;;5086053;28;20486;-55
2022/08/23 01:38:25;;;;;;;6.90;4.65;;;15.90;99.90;;;;;;5069098;28;20049;-55
2022/08/23 01:40:52;;;;;;;5.95;5.07;;;16.00;99.90;;;;;;5068506;28;20081;-58
2022/08/23 01:43:20;;;;;;;11.60;4.25;;;16.00;99.90;;;;;;5089483;28;20055;-59
2022/08/23 01:45:48;;;;;;;8.88;4.28;;;16.00;99.90;;;;;;5088147;28;20055;-58
2022/08/23 01:48:15;;;;;;;7.57;4.40;;;16.00;99.90;;;;;;5089631;28;20516;-59
2022/08/23 01:50:41;;;;;;;8.55;4.68;;;16.00;99.90;;;;;;5088450;28;20044;-57
2022/08/23 01:53:07;;;;;;;8.10;4.47;;;16.00;99.90;;;;;;5089380;28;20044;-59
2022/08/23 01:55:33;;;;;;;7.88;5.18;;;16.00;99.90;;;;;;5089559;28;20055;-60
2022/08/23 01:58:02;;;;;;;6.93;4.90;;;15.90;99.90;;;;;;5089576;28;20048;-56
2022/08/23 02:00:34;;;;;;;5.18;4.53;;;15.90;99.90;;;;;;5089214;28;20058;-60
2022/08/23 02:03:00;;;;;;;6.93;5.18;;;15.80;99.90;;;;;;5089547;28;20096;-58
2022/08/23 02:05:27;;;;;;;5.15;4.47;;;15.80;99.90;;;;;;5089191;28;20040;-58
2022/08/23 02:07:53;;;;;;;5.65;4.20;;;15.80;99.90;;;;;;5089771;28;20106;-60
2022/08/23 02:10:19;;;;;;;4.55;3.95;;;15.80;99.90;;;;;;5081090;28;20509;-57
2022/08/23 02:12:46;;;;;;;5.03;3.92;;;15.80;99.90;;;;;;5068869;28;20049;-60
2022/08/23 02:15:13;;;;;;;6.05;3.60;;;15.70;99.90;;;;;;5068456;28;20045;-56
2022/08/23 02:17:38;;;;;;;4.75;3.90;;;15.70;99.90;;;;;;5088928;28;20177;-57
2022/08/23 02:20:04;;;;;;;4.68;3.63;;;15.80;99.90;;;;;;5087341;28;20131;-55
2022/08/23 02:22:31;;;;;;;4.05;3.67;;;15.70;99.90;;;;;;5089103;28;20198;-55
2022/08/23 02:24:56;;;;;;;4.65;2.88;;;15.70;99.90;;;;;;5088896;28;20111;-58
2022/08/23 02:27:22;;;;;;;7.68;3.78;;;15.70;99.90;;;;;;5088489;28;20162;-55
2022/08/23 02:29:49;;;;;;;5.68;3.03;;;15.60;99.90;;;;;;5088936;28;20052;-56
2022/08/23 02:32:16;;;;;;;4.70;3.67;;;15.60;99.90;;;;;;5089320;28;20059;-55
2022/08/23 02:34:44;;;;;;;4.00;3.50;;;15.60;99.90;;;;;;5081987;28;20054;-55
2022/08/23 02:37:12;;;;;;;4.75;3.10;;;15.50;99.90;;;;;;5089138;28;20044;-56
2022/08/23 02:39:39;;;;;;;4.28;3.15;;;15.50;99.90;;;;;;5087996;28;20432;-56
2022/08/23 02:42:07;;;;;;;5.38;4.32;;;15.50;99.90;;;;;;5078452;28;20044;-55
2022/08/23 02:44:34;;;;;;;4.25;3.50;;;15.50;99.90;;;;;;5083481;28;20182;-55
2022/08/23 02:47:01;;;;;;;6.80;5.50;;;15.40;99.90;;;;;;5087427;28;20050;-55
2022/08/23 02:49:28;;;;;;;5.47;4.13;;;15.50;99.90;;;;;;5086665;28;20056;-55
2022/08/23 02:51:54;;;;;;;11.13;5.82;;;15.50;99.90;;;;;;5090395;28;20040;-55
2022/08/23 02:54:20;;;;;;;6.78;5.82;;;15.50;99.90;;;;;;5092889;28;20048;-56
2022/08/23 02:56:46;;;;;;;6.45;5.38;;;15.50;99.90;;;;;;5092720;28;20050;-58
2022/08/23 02:59:12;;;;;;;5.78;4.35;;;15.50;99.90;;;;;;5092777;28;20401;-57
2022/08/23 03:01:38;;;;;;;4.75;4.32;;;15.40;99.90;;;;;;5092931;28;20048;-57
2022/08/23 03:04:07;;;;;;;5.18;4.63;;;15.30;99.90;;;;;;5081809;28;20044;-60
2022/08/23 03:06:33;;;;;;;5.88;4.85;;;15.30;99.90;;;;;;5072205;28;20083;-60
2022/08/23 03:08:59;;;;;;;8.27;5.00;;;15.30;99.90;;;;;;5072235;28;20084;-58
2022/08/23 03:11:25;;;;;;;8.90;5.75;;;15.40;99.90;;;;;;5089727;28;20113;-59
2022/08/23 03:13:52;;;;;;;7.57;6.82;;;15.40;99.90;;;;;;5092554;28;20516;-58
2022/08/23 03:16:19;;;;;;;10.73;7.30;;;15.40;99.90;;;;;;5092087;28;20528;-59
2022/08/23 03:18:46;;;;;;;7.88;6.05;;;15.40;99.90;;;;;;5090473;28;20052;-58
2022/08/23 03:21:12;;;;;;;6.78;5.60;;;15.40;99.90;;;;;;5092169;28;20036;-55
2022/08/23 03:23:38;;;;;;;6.20;5.38;;;15.40;99.90;;;;;;5092507;28;20055;-59
2022/08/23 03:26:06;;;;;;;8.23;6.35;;;15.40;99.90;;;;;;5092339;28;20071;-60
2022/08/23 03:28:33;;;;;;;6.18;5.60;;;15.40;99.90;;;;;;5090015;28;20490;-60
2022/08/23 03:30:59;;;;;;;7.32;5.97;;;15.40;99.90;;;;;;5092151;28;20424;-58
2022/08/23 03:33:25;;;;;;;8.13;5.70;;;15.40;99.90;;;;;;5081468;28;20561;-60
2022/08/23 03:35:51;;;;;;;7.03;6.03;;;15.30;99.90;;;;;;5097475;28;20131;-61
2022/08/23 03:38:18;;;;;;;7.57;6.32;;;15.40;99.90;;;;;;5112664;28;20078;-61
2022/08/23 03:40:44;;;;;;;7.35;5.47;;;15.30;99.90;;;;;;5112115;28;20511;-59
2022/08/23 03:43:10;;;;;;;5.10;4.32;;;15.40;99.90;;;;;;5092937;28;20040;-58
2022/08/23 03:45:36;;;;;;;4.95;4.22;;;15.30;99.90;;;;;;5090481;28;20071;-56
2022/08/23 03:48:03;;;;;;;6.03;5.45;;;15.30;99.90;;;;;;5092240;28;20044;-59
2022/08/23 03:50:28;;;;;;;9.15;5.68;;;15.30;99.90;;;;;;5090651;28;20058;-58
2022/08/23 03:52:54;;;;;;;6.35;5.45;;;15.20;99.90;;;;;;5090765;28;20035;-58
2022/08/23 03:55:20;;;;;;;6.00;4.22;;;15.20;99.90;;;;;;5078705;28;20520;-59
2022/08/23 03:57:45;;;;;;;7.63;4.78;;;15.20;99.90;;;;;;5073065;28;20462;-58
2022/08/23 04:00:13;;;;;;;4.97;4.30;;;15.20;99.90;;;;;;5090247;28;20048;-61
2022/08/23 04:02:38;;;;;;;6.22;5.50;;;15.10;99.90;;;;;;5091032;28;20644;-60
2022/08/23 04:05:07;;;;;;;5.15;4.47;;;15.20;99.90;;;;;;5090444;28;20052;-60
2022/08/23 04:07:34;;;;;;;4.82;4.43;;;15.20;99.90;;;;;;5091648;28;20371;-60
2022/08/23 04:10:00;;;;;;;5.82;4.97;;;15.10;99.90;;;;;;5084857;28;20048;-61
2022/08/23 04:12:26;;;;;;;5.22;4.72;;;15.10;99.90;;;;;;5091433;28;20059;-60
2022/08/23 04:14:52;;;;;;;6.90;5.20;;;15.10;99.90;;;;;;5091293;28;20387;-60
2022/08/23 04:17:19;;;;;;;6.63;4.72;;;15.20;99.90;;;;;;5091313;28;20044;-57
2022/08/23 04:19:45;;;;;;;5.45;4.95;;;15.10;99.90;;;;;;5091295;28;20050;-60
2022/08/23 04:22:16;;;;;;;7.20;6.22;;;15.10;99.90;;;;;;5090855;28;20052;-60
2022/08/23 04:24:42;;;;;;;6.60;5.75;;;15.00;99.90;;;;;;5090443;28;20438;-60
2022/08/23 04:27:07;;;;;;;7.60;6.68;;;15.10;99.90;;;;;;5090536;28;20050;-60
2022/08/23 04:29:33;;;;;;;6.38;5.78;;;15.00;99.90;;;;;;5090808;28;20126;-59
2022/08/23 04:32:00;;;;;;;7.95;6.50;;;15.00;99.90;;;;;;5090877;28;20524;-56
2022/08/23 04:34:26;;;;;;;9.02;7.80;;;15.00;99.90;;;;;;5090312;28;20440;-56
2022/08/23 04:36:52;;;;;;;11.35;8.30;;;15.10;99.90;;;;;;5070494;28;20514;-55
2022/08/23 04:39:18;;;;;;;8.82;8.00;;;15.10;99.90;;;;;;5070623;28;20044;-55
2022/08/23 04:44:28;;;;;;;9.85;8.82;;;15.10;99.90;;;;;;5090819;28;20083;-57
2022/08/23 04:46:54;;;;;;;9.45;8.38;;;15.10;99.90;;;;;;5090667;28;20485;-56
2022/08/23 04:49:21;;;;;;;10.55;8.55;;;15.10;99.90;;;;;;5090920;28;20044;-55
2022/08/23 04:51:47;;;;;;;14.82;10.20;;;15.10;99.90;;;;;;5091005;28;20075;-55
2022/08/23 04:54:13;;;;;;;13.73;10.15;;;15.10;99.90;;;;;;5090126;28;20458;-55
2022/08/23 04:56:40;;;;;;;13.02;10.40;;;15.20;99.90;;;;;;5090309;28;20569;-55
2022/08/23 04:59:06;;;;;;;10.45;9.45;;;15.20;99.90;;;;;;5088693;28;20131;-55
2022/08/23 05:01:33;;;;;;;19.90;9.75;;;15.30;99.90;;;;;;5089903;28;20081;-55
2022/08/23 05:04:00;;;;;;;11.80;10.02;;;15.30;99.90;;;;;;5090153;28;20048;-54
2022/08/23 05:06:26;;;;;;;10.82;9.02;;;15.30;99.90;;;;;;5090317;28;20379;-55
2022/08/23 05:08:52;;;;;;;11.13;9.30;;;15.30;99.90;;;;;;5089657;28;20387;-55
2022/08/23 05:11:18;;;;;;;12.02;9.73;;;15.40;99.90;;;;;;5073076;28;20838;-56
2022/08/23 05:13:44;;;;;;;14.50;10.65;;;15.40;99.90;;;;;;5069593;28;20060;-55
2022/08/23 05:16:10;;;;;;;13.13;9.60;;;15.50;99.90;;;;;;5076548;28;20119;-56
2022/08/23 05:18:36;;;;;;;10.80;9.40;;;15.50;99.90;;;;;;5090306;28;20052;-55
2022/08/23 05:21:02;;;;;;;11.05;8.80;;;15.60;99.90;;;;;;5090216;28;20044;-55
2022/08/23 05:23:28;;;;;;;12.50;9.50;;;15.70;99.90;;;;;;5089485;28;20048;-55
2022/08/23 05:25:55;;;;;;;12.40;10.00;;;15.80;99.90;;;;;;5087652;28;20135;-55
2022/08/23 05:28:27;;;;;;;10.80;9.70;;;15.90;99.90;;;;;;5085090;28;20444;-55
2022/08/23 05:31:06;;;;;;;12.85;10.48;;;16.10;99.90;;;;;;5089702;28;20048;-56
2022/08/23 05:33:33;;;;;;;12.18;10.88;;;16.20;99.90;;;;;;5090027;28;20052;-55
2022/08/23 05:36:00;;;;;;;15.05;11.82;;;16.40;99.90;;;;;;5089930;28;20040;-56
2022/08/23 05:38:27;;;;;;;11.55;10.35;;;16.50;99.90;;;;;;5089672;28;20135;-59
2022/08/23 05:40:54;;;;;;;11.88;10.77;;;16.60;99.90;;;;;;5080108;28;20409;-55
2022/08/23 05:43:21;;;;;;;13.43;10.80;;;16.80;99.90;;;;;;5087921;28;20055;-56
2022/08/23 05:45:47;;;;;;;15.18;12.75;;;16.90;99.90;;;;;;5089579;28;20058;-55
2022/08/23 05:48:14;;;;;;;15.77;12.68;;;17.00;99.90;;;;;;5089628;28;20044;-56
2022/08/23 05:50:41;;;;;;;13.07;11.77;;;17.10;99.90;;;;;;5089601;28;20039;-58
2022/08/23 05:53:08;;;;;;;14.30;12.52;;;17.30;99.90;;;;;;5089585;28;20070;-56
2022/08/23 05:55:34;;;;;;;17.13;12.05;;;17.40;99.90;;;;;;5088871;28;20035;-59
2022/08/23 05:58:00;;;;;;;12.57;11.32;;;17.50;99.90;;;;;;5068621;28;20052;-59
2022/08/23 06:00:27;;;;;;;14.15;11.50;;;17.60;99.90;;;;;;5066963;28;20049;-59
2022/08/23 06:02:53;;;;;;;14.10;11.25;;;17.70;99.90;;;;;;5087512;28;20052;-60
2022/08/23 06:05:20;;;;;;;16.17;11.18;;;17.70;99.90;;;;;;5073667;28;20056;-58
2022/08/23 06:07:46;;;;;;;13.00;11.57;;;17.70;99.90;;;;;;5069109;28;20426;-60
2022/08/23 06:10:12;;;;;;;11.45;10.35;;;17.80;99.90;;;;;;5076125;28;20043;-55
2022/08/23 06:12:37;;;;;;;12.88;11.52;;;17.90;99.90;;;;;;5087357;28;20059;-55
2022/08/23 06:15:04;;;;;;;13.77;11.60;;;18.00;99.90;;;;;;5087236;28;20417;-55
2022/08/23 06:17:30;;;;;;;12.48;10.57;;;18.30;99.90;;;;;;5089104;28;20040;-56
2022/08/23 06:19:55;;;;;;;12.77;11.32;;;18.50;99.90;;;;;;5091828;28;20055;-55
2022/08/23 06:22:22;;;;;;;13.70;10.88;;;18.60;99.90;;;;;;5092350;28;20055;-56
2022/08/23 06:24:48;;;;;;;12.27;11.02;;;18.90;99.90;;;;;;5091122;28;20043;-58
2022/08/23 06:27:14;;;;;;;13.88;10.73;;;19.10;99.90;;;;;;5079304;28;20041;-56
2022/08/23 06:29:39;;;;;;;12.98;11.15;;;19.30;99.90;;;;;;5073291;28;20048;-58
2022/08/23 06:32:06;;;;;;;10.93;9.98;;;19.50;99.90;;;;;;5083970;28;20033;-58
2022/08/23 06:34:35;;;;;;;10.98;9.98;;;19.70;99.90;;;;;;5076547;28;20140;-56
2022/08/23 06:37:11;;;;;;;12.68;10.65;;;19.90;99.90;;;;;;5092280;28;20044;-56
2022/08/23 06:39:37;;;;;;;11.50;9.63;;;20.00;99.90;;;;;;5092694;28;20085;-57
2022/08/23 06:42:15;;;;;;;12.65;9.95;;;20.20;99.90;;;;;;5082061;28;20546;-57
2022/08/23 06:44:41;;;;;;;10.73;9.65;;;20.40;99.90;;;;;;5072407;28;20044;-56
2022/08/23 06:47:07;;;;;;;10.30;9.23;;;20.60;99.90;;;;;;5072039;28;20045;-59
2022/08/23 06:49:33;;;;;;;10.82;9.75;;;20.80;99.90;;;;;;5082186;28;20383;-55
2022/08/23 06:52:00;;;;;;;10.77;8.48;;;20.90;99.90;;;;;;5091718;28;20035;-55
2022/08/23 06:54:29;;;;;;;11.77;8.82;;;21.10;99.90;;;;;;5090093;28;20110;-55
2022/08/23 06:56:54;;;;;;;10.77;8.27;;;21.10;99.90;;;;;;5091019;28;20117;-55
2022/08/23 06:59:21;;;;;;;9.50;8.65;;;21.40;99.90;;;;;;5090675;28;20075;-56
2022/08/23 07:01:51;;;;;;;9.55;7.97;;;21.40;99.90;;;;;;5087822;28;20377;-56
2022/08/23 07:04:20;;;;;;;13.90;8.73;;;21.60;99.90;;;;;;5079093;28;20465;-55
2022/08/23 07:06:47;;;;;;;9.30;8.40;;;21.80;99.90;;;;;;5079586;28;20036;-56
2022/08/23 07:09:13;;;;;;;11.70;8.10;;;22.10;99.90;;;;;;5072186;28;20049;-56
2022/08/23 07:11:38;;;;;;;8.30;7.32;;;22.30;99.90;;;;;;5090934;28;20433;-56
2022/08/23 07:14:07;;;;;;;7.65;6.35;;;22.50;99.90;;;;;;5091922;28;20067;-57
2022/08/23 07:17:02;;;;;;;7.70;7.03;;;22.70;99.90;;;;;;5085304;28;20068;-61
2022/08/23 07:19:29;;;;;;;;;;;22.70;99.90;;;;;;5085924;28;20059;-55
2022/08/23 07:21:56;;;;;;;10.70;6.60;;;22.90;99.90;;;;;;5091506;28;19978;-55
2022/08/23 07:24:22;;;;;;;7.18;6.53;;;23.00;99.90;;;;;;5090326;28;20473;-57
2022/08/23 07:26:50;;;;;;;8.73;6.80;;;23.10;99.90;;;;;;5091126;28;20047;-55
2022/08/23 07:29:17;;;;;;;7.88;5.20;;;22.90;99.90;;;;;;5091701;28;20051;-57
2022/08/23 07:31:55;;;;;;;6.55;5.50;;;23.30;99.90;;;;;;5082732;28;20048;-56
2022/08/23 07:34:21;;;;;;;6.57;5.32;;;23.40;99.90;;;;;;5079385;28;20583;-57
2022/08/23 07:36:48;;;;;;;6.05;5.45;;;23.70;99.90;;;;;;5079198;28;20087;-57
2022/08/23 07:39:16;;;;;;;9.70;6.03;;;23.90;99.90;;;;;;5073145;28;20454;-57
2022/08/23 07:41:43;;;;;;;6.47;5.85;;;24.10;99.90;;;;;;5081962;28;20047;-57
2022/08/23 07:44:10;;;;;;;7.00;5.68;;;24.20;99.90;;;;;;5095031;28;20434;-57
2022/08/23 07:46:39;;;;;;;7.72;6.10;;;24.20;99.90;;;;;;5094795;28;20044;-57
2022/08/23 07:49:05;;;;;;;6.00;5.30;;;23.90;99.90;;;;;;5092970;28;20047;-56
2022/08/23 07:51:33;;;;;;;7.18;6.20;;;24.20;99.90;;;;;;5094601;28;20494;-56
2022/08/23 07:54:02;;;;;;;10.15;6.35;;;24.10;99.90;;;;;;5094626;28;20510;-56
2022/08/23 07:56:28;;;;;;;6.78;5.97;;;23.90;99.90;;;;;;5093145;28;20036;-55
2022/08/23 07:58:53;;;;;;;11.35;6.32;;;23.80;99.90;;;;;;5088930;28;20394;-57
2022/08/23 08:01:22;;;;;;;9.98;6.65;;;24.10;99.90;;;;;;5093207;28;20032;-58
2022/08/23 08:07:39;;;;;;;7.82;5.95;;;25.00;99.90;;;;;;5077266;28;20042;-57
2022/08/23 08:10:06;;;;;;;6.72;4.97;;;25.80;99.90;;;;;;5074742;28;20509;-57
2022/08/23 08:12:32;;;;;;;15.07;6.78;;;26.00;99.90;;;;;;5075754;28;20060;-56
2022/08/23 08:14:58;;;;;;;6.25;5.70;;;26.30;99.90;;;;;;5079150;28;20049;-55
2022/08/23 08:17:24;;;;;;;9.80;5.75;;;26.40;99.90;;;;;;5079694;28;20039;-57
2022/08/23 08:19:49;;;;;;;7.32;5.55;;;26.50;99.90;;;;;;5078690;28;20115;-59
2022/08/23 08:22:15;;;;;;;6.10;5.05;;;26.70;99.90;;;;;;5081046;28;20068;-57
2022/08/23 08:24:41;;;;;;;5.28;4.68;;;27.40;99.90;;;;;;5082678;28;20123;-59
2022/08/23 08:27:07;;;;;;;4.20;3.80;;;27.90;99.90;;;;;;5082753;28;20076;-63
2022/08/23 08:29:33;;;;;;;6.82;4.20;;;27.90;99.90;;;;;;5087905;28;20579;-61
2022/08/23 08:31:59;;;;;;;6.70;4.60;;;28.20;99.90;;;;;;5091295;28;20082;-57
2022/08/23 08:34:25;;;;;;;7.78;4.57;;;28.40;99.90;;;;;;5083043;28;20068;-58
2022/08/23 08:36:54;;;;;;;5.90;4.28;;;28.60;99.90;;;;;;5076694;28;20406;-58
2022/08/23 08:39:23;;;;;;;6.70;4.18;;;28.70;99.90;;;;;;5069466;28;20048;-57
2022/08/23 08:41:51;;;;;;;6.60;4.13;;;29.10;99.90;;;;;;5084572;28;20375;-61
2022/08/23 08:44:22;;;;;;;4.35;3.95;;;29.20;99.90;;;;;;5081978;28;20054;-61
2022/08/23 08:46:52;;;;;;;4.95;4.00;;;29.20;99.90;;;;;;5070706;28;20112;-58
2022/08/23 08:49:31;;;;;;;5.20;3.75;;;29.60;99.90;;;;;;5069208;28;20474;-63
2022/08/23 08:52:06;;;;;;;4.70;4.05;;;29.20;99.70;;;;;;5075448;28;20059;-57
2022/08/23 08:54:32;;;;;;;5.53;4.25;;;29.60;98.70;;;;;;5070553;28;20041;-60
2022/08/23 08:57:00;;;;;;;6.75;3.75;;;29.50;98.90;;;;;;5070120;28;20044;-59
2022/08/23 08:59:57;;;;;;;9.30;4.40;;;29.90;99.70;;;;;;5070231;28;20049;-61
2022/08/23 09:02:29;;;;;;;7.68;4.35;;;30.20;98.00;;;;;;5087312;28;20047;-62
2022/08/23 09:04:55;;;;;;;6.63;3.83;;;30.40;99.00;;;;;;5087400;28;20047;-58
2022/08/23 09:07:58;;;;;;;7.57;3.58;;;30.60;98.70;;;;;;5087873;28;20040;-56
2022/08/23 09:10:48;;;;;;;9.52;4.45;;;31.50;97.10;;;;;;5069490;28;20850;-56
2022/08/23 09:13:26;;;;;;;5.65;3.17;;;31.50;96.40;;;;;;5070491;28;20405;-56
2022/08/23 09:16:25;;;;;;;7.40;3.13;;;31.80;96.50;;;;;;5070699;28;20094;-59
2022/08/23 09:18:53;;;;;;;11.50;4.28;;;32.00;96.70;;;;;;5077708;28;20520;-60
2022/08/23 09:21:20;;;;;;;4.25;3.53;;;31.60;97.40;;;;;;5079532;28;20405;-59
2022/08/23 09:23:48;;;;;;;4.53;3.08;;;32.40;97.00;;;;;;5078135;28;20044;-58
2022/08/23 09:26:24;;;;;;;8.70;4.18;;;32.20;96.40;;;;;;5075714;28;20071;-56
2022/08/23 09:28:53;;;;;;;5.78;3.55;;;31.80;95.30;;;;;;5082661;28;20086;-56
2022/08/23 09:31:42;;;;;;;10.85;3.90;;;32.30;96.20;;;;;;5067763;28;20162;-56
2022/08/23 09:34:09;;;;;;;10.70;4.07;;;32.30;95.10;;;;;;5081164;28;20044;-56
2022/08/23 09:36:37;;;;;;;17.58;4.18;;;32.40;95.90;;;;;;5074383;28;20052;-56
2022/08/23 09:39:23;;;;;;;18.25;5.15;;;32.60;96.00;;;;;;5080271;28;20054;-56
2022/08/23 09:41:50;;;;;;;11.68;3.40;;;32.60;94.90;;;;;;5070092;28;20052;-56
2022/08/23 09:44:34;;;;;;;8.10;3.15;;;33.20;95.50;;;;;;5077449;28;20394;-58
2022/08/23 09:47:13;;;;;;;4.47;2.70;;;32.80;93.80;;;;;;5069467;28;20386;-56
2022/08/23 09:49:41;;;;;;;5.28;2.85;;;32.90;94.70;;;;;;5076118;28;20129;-58
2022/08/23 09:52:35;;;;;;;7.38;2.97;;;32.80;94.70;;;;;;5073187;28;20122;-61
2022/08/23 09:55:23;;;;;;;9.68;2.83;;;33.20;92.90;;;;;;5068136;28;20540;-56
2022/08/23 09:57:50;;;;;;;3.58;2.63;;;33.10;93.70;;;;;;5068958;28;20395;-57
2022/08/23 10:00:16;;;;;;;13.77;3.40;;;33.20;94.20;;;;;;5069146;28;20412;-56
2022/08/23 10:02:42;;;;;;;14.68;3.83;;;33.00;93.50;;;;;;5088363;28;20087;-56
2022/08/23 10:05:19;;;;;;;11.77;3.03;;;32.90;93.50;;;;;;5089533;28;20047;-56
2022/08/23 10:08:20;;;;;;;6.10;3.70;;;33.00;93.30;;;;;;5090254;28;20048;-60
2022/08/23 10:10:52;;;;;;;7.32;3.00;;;32.80;92.80;;;;;;5059593;28;20509;-57
2022/08/23 10:13:19;;;;;;;6.60;2.78;;;33.10;92.80;;;;;;5069059;28;20059;-61
2022/08/23 10:16:08;;;;;;;8.80;3.25;;;32.80;93.00;;;;;;5068992;28;20514;-58
2022/08/23 10:19:17;;;;;;;6.05;3.33;;;32.90;92.90;;;;;;5070769;28;20395;-57
2022/08/23 10:21:46;;;;;;;4.80;2.72;;;32.90;92.40;;;;;;5061930;28;20055;-62
2022/08/23 10:24:40;;;;;;;5.40;2.40;;;32.80;92.40;;;;;;5076576;28;20486;-57
2022/08/23 10:29:35;;;;;;;3.20;1.77;;;32.90;91.90;;;;;;5078158;28;20039;-59
2022/08/23 10:30:03;;;;;;;7.65;2.55;;;32.60;92.00;;;;;;5079023;28;20457;-57
2022/08/23 10:32:45;;;;;;;3.08;2.00;;;32.40;91.80;;;;;;5077876;28;20043;-58
2022/08/23 10:35:51;;;;;;;2.75;1.60;;;33.00;91.60;;;;;;5079163;28;20048;-56
2022/08/23 10:38:36;;;;;;;7.82;2.30;;;33.00;90.70;;;;;;5078014;28;20575;-56
2022/08/23 10:41:26;;;;;;;4.43;2.28;;;32.60;91.30;;;;;;5080909;28;20056;-61
2022/08/23 10:44:24;;;;;;;3.67;2.50;;;32.40;90.90;;;;;;5077353;28;20130;-56
2022/08/23 10:47:06;;;;;;;2.67;1.73;;;32.60;91.10;;;;;;5079731;28;20048;-56
2022/08/23 10:49:38;;;;;;;4.75;2.58;;;32.60;91.10;;;;;;5076256;28;20051;-58
2022/08/23 10:52:08;;;;;;;4.50;2.55;;;32.80;91.30;;;;;;5075875;28;20398;-56
2022/08/23 10:54:45;;;;;;;5.07;2.80;;;33.10;91.40;;;;;;5068125;28;20081;-57
2022/08/23 10:57:15;;;;;;;4.72;2.20;;;32.90;90.70;;;;;;5067329;28;20086;-56
2022/08/23 10:59:44;;;;;;;6.35;2.47;;;32.90;90.90;;;;;;5075511;28;20044;-56
2022/08/23 11:02:38;;;;;;;1.92;1.63;;;32.90;91.10;;;;;;5076946;28;20123;-57
2022/08/23 11:05:04;;;;;;;;;;;33.10;90.30;;;;;;5078262;28;20048;-56
2022/08/23 11:07:41;;;;;;;4.85;1.63;;;33.00;87.90;;;;;;5077018;28;19927;-61
2022/08/23 11:10:15;;;;;;;3.17;1.80;;;33.00;88.10;;;;;;5078799;28;20048;-56
2022/08/23 11:13:00;;;;;;;5.20;1.90;;;33.10;88.40;;;;;;5076539;28;20051;-56
2022/08/23 11:15:45;;;;;;;3.65;1.92;;;33.40;88.70;;;;;;5084232;28;20051;-56
2022/08/23 11:18:44;;;;;;;2.30;1.60;;;33.10;87.00;;;;;;5083457;28;20048;-56
2022/08/23 11:21:24;;;;;;;4.70;2.25;;;33.30;87.70;;;;;;5079826;28;20374;-56
2022/08/23 11:24:13;;;;;;;4.47;1.90;;;33.70;89.00;;;;;;5080787;28;20051;-56
2022/08/23 11:26:40;;;;;;;2.40;1.50;;;33.80;86.10;;;;;;5081944;28;20494;-56
2022/08/23 11:29:05;;;;;;;4.43;2.40;;;34.70;87.90;;;;;;5081602;28;20040;-56
2022/08/23 11:31:59;;;;;;;11.00;2.53;;;35.80;86.50;;;;;;5080010;28;20565;-57
2022/08/23 11:34:53;;;;;;;3.35;2.03;;;37.60;84.30;;;;;;5083215;28;20102;-56
2022/08/23 11:37:19;;;;;;;4.25;1.52;;;38.20;81.30;;;;;;5080973;28;20509;-56
2022/08/23 11:39:57;;;;;;;3.83;2.10;;;39.60;82.10;;;;;;5082783;28;20044;-56
2022/08/23 11:42:32;;;;;;;5.18;1.70;;;40.00;80.70;;;;;;5087543;28;20051;-56
2022/08/23 11:45:00;;;;;;;12.52;2.30;;;39.80;79.70;;;;;;5086346;28;20047;-56
2022/08/23 11:47:40;;;;;;;4.57;2.03;;;40.20;79.30;;;;;;5085669;28;20538;-57
2022/08/23 11:50:26;;;;;;;4.65;2.00;;;41.10;76.60;;;;;;5086238;28;20047;-58
2022/08/23 11:53:15;;;;;;;4.78;2.22;;;41.80;74.90;;;;;;5081442;28;20044;-58
2022/08/23 11:55:59;;;;;;;11.38;2.05;;;41.80;73.40;;;;;;5081132;28;20032;-56
2022/08/23 11:58:43;;;;;;;4.95;2.08;;;41.70;74.70;;;;;;5082141;28;20120;-59
2022/08/23 12:01:12;;;;;;;4.72;2.67;;;41.50;71.50;;;;;;5082427;28;20128;-56
2022/08/23 12:03:55;;;;;;;2.17;1.80;;;42.30;73.00;;;;;;5086390;28;20123;-56
2022/08/23 12:06:21;;;;;;;3.40;2.22;;;43.10;71.60;;;;;;5091939;28;20043;-56
2022/08/23 12:08:53;;;;;;;2.40;2.00;;;42.90;71.60;;;;;;5087060;28;20047;-56
2022/08/23 12:11:20;;;;;;;3.72;2.25;;;43.40;70.90;;;;;;5091042;28;20048;-57
2022/08/23 12:14:30;;;;;;;4.20;2.15;;;42.70;70.20;;;;;;5091659;28;20060;-60
2022/08/23 12:16:59;;;;;;;6.63;2.00;;;43.10;68.30;;;;;;5071874;28;20060;-61
2022/08/23 12:19:34;;;;;;;5.47;2.20;;;42.90;69.60;;;;;;5071678;28;20052;-57
2022/08/23 12:22:17;;;;;;;7.57;2.08;;;43.20;67.50;;;;;;5071341;28;20036;-60
2022/08/23 12:24:48;;;;;;;2.72;1.63;;;44.20;66.50;;;;;;5069497;28;20444;-58
2022/08/23 12:27:42;;;;;;;3.53;1.90;;;43.90;67.30;;;;;;5070712;28;20113;-56
2022/08/23 12:30:19;;;;;;;4.20;1.95;;;44.20;67.30;;;;;;5071292;28;20044;-60
2022/08/23 12:33:29;;;;;;;5.40;2.05;;;45.00;67.00;;;;;;5086101;28;20048;-60
2022/08/23 12:36:26;;;;;;;2.00;1.67;;;44.70;64.10;;;;;;5086537;28;20055;-63
2022/08/23 12:39:06;;;;;;;3.47;1.83;;;42.30;65.00;;;;;;5087644;28;20048;-57
2022/08/23 12:41:50;;;;;;;2.17;1.98;;;41.10;66.90;;;;;;5087585;28;20052;-56
2022/08/23 12:44:19;;;;;;;5.05;2.42;;;39.90;67.10;;;;;;5086247;28;20032;-58
2022/08/23 12:46:47;;;;;;;3.70;2.35;;;37.50;68.80;;;;;;5091383;28;20044;-64
2022/08/23 12:49:52;;;;;;;6.22;2.17;;;37.50;70.10;;;;;;5091301;28;20044;-64
2022/08/23 12:52:24;;;;;;;3.10;1.75;;;36.60;70.20;;;;;;5058183;28;20439;-60
2022/08/23 12:54:56;;;;;;;8.43;2.78;;;35.90;70.70;;;;;;5090528;28;20066;-56
2022/08/23 12:57:32;;;;;;;4.38;2.38;;;35.20;72.70;;;;;;5087563;28;20136;-56
2022/08/23 13:00:32;;;;;;;4.15;2.40;;;34.60;73.20;;;;;;5090257;28;20043;-57
2022/08/23 13:03:05;;;;;;;3.75;1.42;;;34.60;73.80;;;;;;5078695;28;20051;-56
2022/08/23 13:06:00;;;;;;;3.23;1.70;;;34.40;74.30;;;;;;5070436;28;20048;-56
2022/08/23 13:08:32;;;;;;;4.00;1.83;;;33.80;74.80;;;;;;5061465;28;20497;-56
2022/08/23 13:10:58;;;;;;;7.80;2.05;;;34.00;75.10;;;;;;5070119;28;20044;-58
2022/08/23 13:13:26;;;;;;;4.70;2.10;;;33.50;75.00;;;;;;5082460;28;20056;-56
2022/08/23 13:16:02;;;;;;;6.20;2.33;;;33.20;75.90;;;;;;5088317;28;20052;-58